createdAt,value
2017-12-13T00:00:01.723Z,19.75
2017-12-13T00:01:01.750Z,19.75
2017-12-13T00:02:01.782Z,19.79
2017-12-13T00:03:01.816Z,19.71
2017-12-13T00:04:01.843Z,19.86
2017-12-13T00:05:02.222Z,19.75
2017-12-13T00:07:01.938Z,19.79
2017-12-13T00:08:01.979Z,19.75
2017-12-13T00:09:02.000Z,19.71
2017-12-13T00:10:02.126Z,19.78
2017-12-13T00:11:02.107Z,19.67
2017-12-13T00:12:02.385Z,19.76
2017-12-13T00:13:02.116Z,19.68
2017-12-13T00:14:02.148Z,19.75
2017-12-13T00:15:02.175Z,19.71
2017-12-13T00:16:02.260Z,19.75
2017-12-13T00:17:02.239Z,19.76
2017-12-13T00:18:02.569Z,19.80
2017-12-13T00:19:02.295Z,19.67
2017-12-13T00:20:02.330Z,19.72
2017-12-13T00:21:02.372Z,19.75
2017-12-13T00:22:02.540Z,19.75
2017-12-13T00:23:02.418Z,19.76
2017-12-13T00:24:02.456Z,19.82
2017-12-13T00:25:03.178Z,19.78
2017-12-13T00:26:02.515Z,19.82
2017-12-13T00:27:02.697Z,19.79
2017-12-13T00:28:02.669Z,19.86
2017-12-13T00:29:02.600Z,19.78
2017-12-13T00:30:02.638Z,19.78
2017-12-13T00:31:02.719Z,19.78
2017-12-13T00:32:02.992Z,19.76
2017-12-13T00:33:02.724Z,19.79
2017-12-13T00:34:03.056Z,19.76
2017-12-13T00:35:02.784Z,19.79
2017-12-13T00:36:02.810Z,19.80
2017-12-13T00:37:02.845Z,19.82
2017-12-13T00:38:02.883Z,19.78
2017-12-13T00:39:03.203Z,19.82
2017-12-13T00:40:03.071Z,19.71
2017-12-13T00:41:02.963Z,19.78
2017-12-13T00:42:02.992Z,19.76
2017-12-13T00:43:03.026Z,19.80
2017-12-13T00:44:03.070Z,19.78
2017-12-13T00:45:03.089Z,19.79
2017-12-13T00:46:03.666Z,19.76
2017-12-13T00:47:03.143Z,19.72
2017-12-13T00:48:03.172Z,19.78
2017-12-13T00:49:03.202Z,19.79
2017-12-13T00:50:03.236Z,19.80
2017-12-13T00:51:03.279Z,19.82
2017-12-13T00:52:03.552Z,19.78
2017-12-13T00:53:03.627Z,19.80
2017-12-13T00:54:03.354Z,19.78
2017-12-13T00:55:03.387Z,19.80
2017-12-13T00:56:03.424Z,19.79
2017-12-13T00:57:03.444Z,19.82
2017-12-13T00:58:03.683Z,19.80
2017-12-13T00:59:03.510Z,19.80
2017-12-13T01:01:03.870Z,19.70
2017-12-13T01:02:03.600Z,19.76
2017-12-13T01:03:03.628Z,19.75
2017-12-13T01:04:03.812Z,19.68
2017-12-13T01:05:03.701Z,19.76
2017-12-13T01:06:03.725Z,19.76
2017-12-13T01:07:03.757Z,19.68
2017-12-13T01:08:04.078Z,19.76
2017-12-13T01:09:03.813Z,19.70
2017-12-13T01:10:03.997Z,19.78
2017-12-13T01:11:03.877Z,19.76
2017-12-13T01:12:03.908Z,19.86
2017-12-13T01:13:03.937Z,19.72
2017-12-13T01:14:03.963Z,19.76
2017-12-13T01:15:04.293Z,19.72
2017-12-13T01:16:04.227Z,19.78
2017-12-13T01:17:04.068Z,19.70
2017-12-13T01:18:04.316Z,19.68
2017-12-13T01:19:04.114Z,19.78
2017-12-13T01:20:04.151Z,19.75
2017-12-13T01:21:04.175Z,19.71
2017-12-13T01:22:04.457Z,19.68
2017-12-13T01:23:04.236Z,19.75
2017-12-13T01:24:04.455Z,19.83
2017-12-13T01:25:04.300Z,19.76
2017-12-13T01:26:04.434Z,19.79
2017-12-13T01:27:04.359Z,19.68
2017-12-13T01:28:05.994Z,19.67
2017-12-13T01:30:04.463Z,19.68
2017-12-13T01:31:04.481Z,19.76
2017-12-13T01:32:04.509Z,19.78
2017-12-13T01:33:04.573Z,19.79
2017-12-13T01:34:04.620Z,19.80
2017-12-13T01:35:04.901Z,19.78
2017-12-13T01:36:04.637Z,19.78
2017-12-13T01:37:04.667Z,19.70
2017-12-13T01:38:04.689Z,19.75
2017-12-13T01:39:04.723Z,19.70
2017-12-13T01:40:04.857Z,19.79
2017-12-13T01:41:05.085Z,19.72
2017-12-13T01:42:04.822Z,19.78
2017-12-13T01:43:04.845Z,19.78
2017-12-13T01:44:04.874Z,19.67
2017-12-13T01:46:05.136Z,19.78
2017-12-13T01:47:04.968Z,19.76
2017-12-13T01:48:05.297Z,19.68
2017-12-13T01:49:05.022Z,19.79
2017-12-13T01:50:05.057Z,19.83
2017-12-13T01:51:05.087Z,19.78
2017-12-13T01:52:05.267Z,19.83
2017-12-13T01:53:05.144Z,19.75
2017-12-13T01:54:06.012Z,19.80
2017-12-13T01:55:05.203Z,19.85
2017-12-13T01:56:05.250Z,19.75
2017-12-13T01:57:05.271Z,19.76
2017-12-13T01:58:05.348Z,19.76
2017-12-13T01:59:05.328Z,19.68
2017-12-13T02:00:05.360Z,19.72
2017-12-13T02:01:05.702Z,19.78
2017-12-13T02:04:05.739Z,19.83
2017-12-13T02:05:05.566Z,19.78
2017-12-13T02:06:05.672Z,19.78
2017-12-13T02:07:05.870Z,19.80
2017-12-13T02:08:05.665Z,19.71
2017-12-13T02:09:05.679Z,19.71
2017-12-13T02:10:05.713Z,19.79
2017-12-13T02:11:05.694Z,19.75
2017-12-13T02:12:05.793Z,19.79
2017-12-13T02:13:06.312Z,19.70
2017-12-13T02:14:05.778Z,19.72
2017-12-13T02:15:06.998Z,19.76
2017-12-13T02:16:05.994Z,19.78
2017-12-13T02:17:05.935Z,19.76
2017-12-13T02:18:05.919Z,19.82
2017-12-13T02:19:06.233Z,19.76
2017-12-13T02:20:06.326Z,19.76
2017-12-13T02:21:06.004Z,19.71
2017-12-13T02:22:06.020Z,19.72
2017-12-13T02:23:06.329Z,19.67
2017-12-13T02:24:06.135Z,19.83
2017-12-13T02:25:06.515Z,19.82
2017-12-13T02:26:06.202Z,19.75
2017-12-13T02:27:06.175Z,19.67
2017-12-13T02:28:06.206Z,19.71
2017-12-13T02:29:06.238Z,19.80
2017-12-13T02:30:06.339Z,19.75
2017-12-13T02:31:06.594Z,19.70
2017-12-13T02:32:06.326Z,19.78
2017-12-13T02:33:06.436Z,19.78
2017-12-13T02:34:06.455Z,19.86
2017-12-13T02:35:06.515Z,19.76
2017-12-13T02:36:06.484Z,19.78
2017-12-13T02:37:06.777Z,19.78
2017-12-13T02:38:06.508Z,19.75
2017-12-13T02:39:06.553Z,19.75
2017-12-13T02:40:06.767Z,19.78
2017-12-13T02:41:06.606Z,19.76
2017-12-13T02:42:06.678Z,19.75
2017-12-13T02:43:06.666Z,19.71
2017-12-13T02:44:07.001Z,19.78
2017-12-13T02:45:07.029Z,19.71
2017-12-13T02:46:06.749Z,19.68
2017-12-13T02:47:08.080Z,19.72
2017-12-13T02:48:07.059Z,19.71
2017-12-13T02:49:06.856Z,19.83
2017-12-13T02:50:06.870Z,19.71
2017-12-13T02:51:07.251Z,19.68
2017-12-13T02:52:06.948Z,19.76
2017-12-13T02:53:06.978Z,19.70
2017-12-13T02:54:07.070Z,19.70
2017-12-13T02:55:07.031Z,19.67
2017-12-13T02:56:07.245Z,19.75
2017-12-13T02:57:07.649Z,19.65
2017-12-13T02:58:07.536Z,19.65
2017-12-13T02:59:07.141Z,19.67
2017-12-13T03:00:07.244Z,19.67
2017-12-13T03:01:09.237Z,19.72
2017-12-13T03:02:07.236Z,19.72
2017-12-13T03:03:08.184Z,19.70
2017-12-13T03:04:07.335Z,19.70
2017-12-13T03:05:07.680Z,19.70
2017-12-13T03:06:07.354Z,19.72
2017-12-13T03:07:07.593Z,19.61
2017-12-13T03:08:07.465Z,19.61
2017-12-13T03:09:07.540Z,19.75
2017-12-13T03:10:07.477Z,19.65
2017-12-13T03:11:07.566Z,19.70
2017-12-13T03:12:07.850Z,19.64
2017-12-13T03:13:07.786Z,19.65
2017-12-13T03:14:07.594Z,19.62
2017-12-13T03:16:07.773Z,19.57
2017-12-13T03:17:07.712Z,19.60
2017-12-13T03:18:07.797Z,19.60
2017-12-13T03:19:08.101Z,19.65
2017-12-13T03:20:07.789Z,19.58
2017-12-13T03:21:07.806Z,19.60
2017-12-13T03:22:07.849Z,19.60
2017-12-13T03:23:07.924Z,19.53
2017-12-13T03:24:07.912Z,19.57
2017-12-13T03:25:07.943Z,19.58
2017-12-13T03:26:08.264Z,19.62
2017-12-13T03:27:08.013Z,19.58
2017-12-13T03:28:08.642Z,19.61
2017-12-13T03:29:09.451Z,19.58
2017-12-13T03:30:08.082Z,19.57
2017-12-13T03:31:08.118Z,19.58
2017-12-13T03:32:08.142Z,19.58
2017-12-13T03:33:08.469Z,19.61
2017-12-13T03:34:08.353Z,19.57
2017-12-13T03:35:08.315Z,19.58
2017-12-13T03:36:08.268Z,19.57
2017-12-13T03:37:08.308Z,19.60
2017-12-13T03:38:08.341Z,19.55
2017-12-13T03:39:08.436Z,19.57
2017-12-13T03:40:08.681Z,19.60
2017-12-13T03:41:08.413Z,19.61
2017-12-13T03:42:08.444Z,19.61
2017-12-13T03:43:08.475Z,19.60
2017-12-13T03:44:08.649Z,19.62
2017-12-13T03:45:08.552Z,19.60
2017-12-13T03:46:08.564Z,19.62
2017-12-13T03:47:08.902Z,19.57
2017-12-13T03:48:08.632Z,19.70
2017-12-13T03:49:08.654Z,19.64
2017-12-13T03:50:08.749Z,19.62
2017-12-13T03:51:08.714Z,19.70
2017-12-13T03:52:08.748Z,19.62
2017-12-13T03:53:08.860Z,19.62
2017-12-13T03:54:09.115Z,19.68
2017-12-13T03:55:09.150Z,19.67
2017-12-13T03:56:08.920Z,19.70
2017-12-13T03:57:08.903Z,19.61
2017-12-13T03:58:08.926Z,19.75
2017-12-13T03:59:08.955Z,19.65
2017-12-13T04:00:09.237Z,19.68
2017-12-13T04:01:09.078Z,19.62
2017-12-13T04:02:09.046Z,19.65
2017-12-13T04:03:09.090Z,19.67
2017-12-13T04:04:09.604Z,19.58
2017-12-13T04:05:09.236Z,19.65
2017-12-13T04:06:09.481Z,19.60
2017-12-13T04:07:09.199Z,19.68
2017-12-13T04:08:10.860Z,19.60
2017-12-13T04:09:09.271Z,19.71
2017-12-13T04:10:09.295Z,19.70
2017-12-13T04:11:09.577Z,19.68
2017-12-13T04:12:09.648Z,19.64
2017-12-13T04:13:09.396Z,19.64
2017-12-13T04:14:09.422Z,19.62
2017-12-13T04:15:09.490Z,19.71
2017-12-13T04:16:09.534Z,19.70
2017-12-13T04:17:09.715Z,19.67
2017-12-13T04:18:09.840Z,19.78
2017-12-13T04:19:10.503Z,19.70
2017-12-13T04:20:09.692Z,19.70
2017-12-13T04:21:09.737Z,19.64
2017-12-13T04:22:09.680Z,19.72
2017-12-13T04:23:09.921Z,19.72
2017-12-13T04:24:10.018Z,19.72
2017-12-13T04:25:09.745Z,19.68
2017-12-13T04:26:09.890Z,19.72
2017-12-13T04:27:09.818Z,19.71
2017-12-13T04:28:09.877Z,19.75
2017-12-13T04:29:09.912Z,19.62
2017-12-13T04:30:10.404Z,19.70
2017-12-13T04:31:09.931Z,19.68
2017-12-13T04:32:10.122Z,19.62
2017-12-13T04:33:09.987Z,19.70
2017-12-13T04:34:10.012Z,19.72
2017-12-13T04:35:10.142Z,19.72
2017-12-13T04:36:10.419Z,19.62
2017-12-13T04:37:10.103Z,19.70
2017-12-13T04:38:10.139Z,19.64
2017-12-13T04:39:10.219Z,19.71
2017-12-13T04:40:10.483Z,19.72
2017-12-13T04:41:10.301Z,19.68
2017-12-13T04:42:10.630Z,19.71
2017-12-13T04:43:10.287Z,19.68
2017-12-13T04:44:10.329Z,19.72
2017-12-13T04:45:10.480Z,19.71
2017-12-13T04:46:10.439Z,19.72
2017-12-13T04:47:10.426Z,19.75
2017-12-13T04:48:10.736Z,19.64
2017-12-13T04:49:10.465Z,19.68
2017-12-13T04:50:10.577Z,19.71
2017-12-13T04:51:10.536Z,19.68
2017-12-13T04:52:10.610Z,19.68
2017-12-13T04:53:10.588Z,19.67
2017-12-13T04:54:10.928Z,19.75
2017-12-13T04:55:10.654Z,19.68
2017-12-13T04:56:10.684Z,19.71
2017-12-13T04:57:10.720Z,19.72
2017-12-13T04:58:10.748Z,19.70
2017-12-13T04:59:10.899Z,19.65
2017-12-13T05:00:11.117Z,19.70
2017-12-13T05:01:10.863Z,19.67
2017-12-13T05:02:10.888Z,19.72
2017-12-13T05:03:10.991Z,19.67
2017-12-13T05:04:10.975Z,19.71
2017-12-13T05:05:10.955Z,19.67
2017-12-13T05:06:11.281Z,19.64
2017-12-13T05:07:11.013Z,19.72
2017-12-13T05:08:11.045Z,19.72
2017-12-13T05:09:11.094Z,19.68
2017-12-13T05:10:11.152Z,19.72
2017-12-13T05:11:11.136Z,19.68
2017-12-13T05:12:11.169Z,19.70
2017-12-13T05:13:11.492Z,19.67
2017-12-13T05:14:11.274Z,19.72
2017-12-13T05:15:11.432Z,19.68
2017-12-13T05:16:11.613Z,19.72
2017-12-13T05:17:11.312Z,19.70
2017-12-13T05:18:11.361Z,19.62
2017-12-13T05:19:11.428Z,19.67
2017-12-13T05:20:11.483Z,19.71
2017-12-13T05:21:11.435Z,19.72
2017-12-13T05:22:11.644Z,19.67
2017-12-13T05:23:11.498Z,19.70
2017-12-13T05:24:11.587Z,19.72
2017-12-13T05:25:11.571Z,19.70
2017-12-13T05:26:12.001Z,19.72
2017-12-13T05:27:11.623Z,19.67
2017-12-13T05:28:11.714Z,19.58
2017-12-13T05:29:11.683Z,19.62
2017-12-13T05:30:11.721Z,19.71
2017-12-13T05:31:11.765Z,19.70
2017-12-13T05:32:11.771Z,19.72
2017-12-13T05:33:12.161Z,19.72
2017-12-13T05:34:11.927Z,19.70
2017-12-13T05:35:11.868Z,19.68
2017-12-13T05:36:12.029Z,19.62
2017-12-13T05:37:12.013Z,19.67
2017-12-13T05:38:11.950Z,19.71
2017-12-13T05:39:11.980Z,19.70
2017-12-13T05:40:12.614Z,19.78
2017-12-13T05:41:12.040Z,19.55
2017-12-13T05:42:12.076Z,19.65
2017-12-13T05:43:12.100Z,19.64
2017-12-13T05:44:12.131Z,19.62
2017-12-13T05:45:12.163Z,19.60
2017-12-13T05:46:12.539Z,19.68
2017-12-13T05:47:12.523Z,19.67
2017-12-13T05:48:12.260Z,19.68
2017-12-13T05:49:12.281Z,19.62
2017-12-13T05:50:12.324Z,19.68
2017-12-13T05:51:12.397Z,19.72
2017-12-13T05:52:12.423Z,19.68
2017-12-13T05:53:12.405Z,19.61
2017-12-13T05:54:12.735Z,19.68
2017-12-13T05:55:12.465Z,19.62
2017-12-13T05:56:12.494Z,19.64
2017-12-13T05:57:12.532Z,19.65
2017-12-13T05:58:12.702Z,19.76
2017-12-13T05:59:12.588Z,19.57
2017-12-13T06:00:12.628Z,19.61
2017-12-13T06:01:12.944Z,19.65
2017-12-13T06:02:12.686Z,19.67
2017-12-13T06:03:12.708Z,19.68
2017-12-13T06:04:13.141Z,19.67
2017-12-13T06:05:12.774Z,19.61
2017-12-13T06:06:12.809Z,19.67
2017-12-13T06:07:12.894Z,19.65
2017-12-13T06:08:13.163Z,19.67
2017-12-13T06:09:12.889Z,19.68
2017-12-13T06:10:13.073Z,19.68
2017-12-13T06:11:12.945Z,19.76
2017-12-13T06:12:13.002Z,19.71
2017-12-13T06:13:13.058Z,19.71
2017-12-13T06:14:13.058Z,19.64
2017-12-13T06:15:13.368Z,19.76
2017-12-13T06:16:13.302Z,19.68
2017-12-13T06:17:13.129Z,19.64
2017-12-13T06:18:13.157Z,19.68
2017-12-13T06:19:13.191Z,19.68
2017-12-13T06:20:13.236Z,19.62
2017-12-13T06:21:13.255Z,19.72
2017-12-13T06:22:13.629Z,19.72
2017-12-13T06:23:13.314Z,19.67
2017-12-13T06:24:13.337Z,19.72
2017-12-13T06:25:13.376Z,19.71
2017-12-13T06:26:13.400Z,19.62
2017-12-13T06:27:13.443Z,19.70
2017-12-13T06:28:13.567Z,19.67
2017-12-13T06:29:13.795Z,19.72
2017-12-13T06:30:13.527Z,19.70
2017-12-13T06:31:13.561Z,19.75
2017-12-13T06:32:13.585Z,19.67
2017-12-13T06:33:13.611Z,19.72
2017-12-13T06:34:13.842Z,19.76
2017-12-13T06:35:13.976Z,19.65
2017-12-13T06:36:13.750Z,19.75
2017-12-13T06:37:13.738Z,19.70
2017-12-13T06:38:13.769Z,19.71
2017-12-13T06:39:13.842Z,19.70
2017-12-13T06:40:14.024Z,19.65
2017-12-13T06:41:14.167Z,19.72
2017-12-13T06:42:13.889Z,19.67
2017-12-13T06:43:13.921Z,19.67
2017-12-13T06:44:13.943Z,19.76
2017-12-13T06:45:14.055Z,19.72
2017-12-13T06:46:14.258Z,19.67
2017-12-13T06:47:14.040Z,19.70
2017-12-13T06:48:14.066Z,19.70
2017-12-13T06:49:14.139Z,19.68
2017-12-13T06:50:14.152Z,19.70
2017-12-13T06:52:14.596Z,19.67
2017-12-13T06:53:14.217Z,19.75
2017-12-13T06:54:14.245Z,19.65
2017-12-13T06:55:14.301Z,19.72
2017-12-13T06:56:14.321Z,19.72
2017-12-13T06:57:14.940Z,19.70
2017-12-13T06:59:16.024Z,19.70
2017-12-13T07:00:14.545Z,19.75
2017-12-13T07:02:14.495Z,19.78
2017-12-13T07:04:14.853Z,19.76
2017-12-13T07:06:15.129Z,19.70
2017-12-13T07:07:14.641Z,19.76
2017-12-13T07:08:14.670Z,19.71
2017-12-13T07:09:14.760Z,19.78
2017-12-13T07:10:14.730Z,19.71
2017-12-13T07:12:14.993Z,19.79
2017-12-13T07:13:14.831Z,19.79
2017-12-13T07:14:14.857Z,19.76
2017-12-13T07:15:14.902Z,19.80
2017-12-13T07:16:14.912Z,19.76
2017-12-13T07:17:14.944Z,19.82
2017-12-13T07:18:16.310Z,19.80
2017-12-13T07:19:15.007Z,19.82
2017-12-13T07:20:15.045Z,19.76
2017-12-13T07:21:15.075Z,19.70
2017-12-13T07:22:15.095Z,19.83
2017-12-13T07:23:15.132Z,19.78
2017-12-13T07:24:15.725Z,19.68
2017-12-13T07:25:15.187Z,19.75
2017-12-13T07:26:15.219Z,19.70
2017-12-13T07:27:15.250Z,19.78
2017-12-13T07:28:15.279Z,19.79
2017-12-13T07:29:15.312Z,19.71
2017-12-13T07:31:15.725Z,19.79
2017-12-13T07:32:15.410Z,19.78
2017-12-13T07:33:15.489Z,19.79
2017-12-13T07:34:15.542Z,19.78
2017-12-13T07:35:15.558Z,19.75
2017-12-13T07:36:15.527Z,19.76
2017-12-13T07:38:15.935Z,19.83
2017-12-13T07:39:15.617Z,19.78
2017-12-13T07:40:15.648Z,19.76
2017-12-13T07:41:15.676Z,19.75
2017-12-13T07:42:15.715Z,19.82
2017-12-13T07:43:15.748Z,19.78
2017-12-13T07:44:16.015Z,19.75
2017-12-13T07:45:16.099Z,19.80
2017-12-13T07:46:15.828Z,19.79
2017-12-13T07:47:15.873Z,19.80
2017-12-13T07:48:15.888Z,19.80
2017-12-13T07:49:15.920Z,19.82
2017-12-13T07:50:16.096Z,19.75
2017-12-13T07:51:15.976Z,19.76
2017-12-13T07:52:16.326Z,19.80
2017-12-13T07:53:16.057Z,19.76
2017-12-13T07:54:16.070Z,19.80
2017-12-13T07:55:16.097Z,19.79
2017-12-13T07:56:16.191Z,19.79
2017-12-13T07:57:16.174Z,19.78
2017-12-13T07:58:16.243Z,19.76
2017-12-13T07:59:16.537Z,19.76
2017-12-13T08:00:16.258Z,19.79
2017-12-13T08:01:16.280Z,19.76
2017-12-13T08:03:16.444Z,19.76
2017-12-13T08:04:16.370Z,19.79
2017-12-13T08:05:16.416Z,19.79
2017-12-13T08:06:16.731Z,19.82
2017-12-13T08:07:16.483Z,19.85
2017-12-13T08:08:16.493Z,19.80
2017-12-13T08:09:16.682Z,19.82
2017-12-13T08:10:16.558Z,19.82
2017-12-13T08:11:16.589Z,19.82
2017-12-13T08:12:16.621Z,19.85
2017-12-13T08:13:16.971Z,19.82
2017-12-13T08:14:16.679Z,19.79
2017-12-13T08:15:16.860Z,19.80
2017-12-13T08:17:16.784Z,19.90
2017-12-13T08:18:16.802Z,19.89
2017-12-13T08:19:16.833Z,19.92
2017-12-13T08:20:17.160Z,19.86
2017-12-13T08:21:17.089Z,19.87
2017-12-13T08:22:16.934Z,19.89
2017-12-13T08:23:16.951Z,19.89
2017-12-13T08:24:16.986Z,19.89
2017-12-13T08:25:17.010Z,19.92
2017-12-13T08:26:17.050Z,19.94
2017-12-13T08:27:17.474Z,19.89
2017-12-13T08:28:17.110Z,19.92
2017-12-13T08:29:17.149Z,19.92
2017-12-13T08:30:17.182Z,19.90
2017-12-13T08:31:17.205Z,19.92
2017-12-13T08:32:17.288Z,19.92
2017-12-13T08:33:17.409Z,19.97
2017-12-13T08:34:17.591Z,19.87
2017-12-13T08:35:17.324Z,19.95
2017-12-13T08:36:17.348Z,19.95
2017-12-13T08:37:17.388Z,19.89
2017-12-13T08:38:17.409Z,19.87
2017-12-13T08:39:17.591Z,19.89
2017-12-13T08:40:17.487Z,19.87
2017-12-13T08:41:17.852Z,19.97
2017-12-13T08:42:17.534Z,19.92
2017-12-13T08:43:17.576Z,19.89
2017-12-13T08:44:17.598Z,19.95
2017-12-13T08:45:17.775Z,19.95
2017-12-13T08:46:17.653Z,19.95
2017-12-13T08:47:18.398Z,19.89
2017-12-13T08:48:18.023Z,19.87
2017-12-13T08:49:17.748Z,19.90
2017-12-13T08:50:17.777Z,19.98
2017-12-13T08:51:17.907Z,19.90
2017-12-13T08:52:17.840Z,19.92
2017-12-13T08:53:17.868Z,19.92
2017-12-13T08:54:18.202Z,19.87
2017-12-13T08:55:17.927Z,19.89
2017-12-13T08:56:17.968Z,19.95
2017-12-13T08:58:18.089Z,19.98
2017-12-13T08:59:18.054Z,19.90
2017-12-13T09:00:18.381Z,19.95
2017-12-13T09:01:18.112Z,19.92
2017-12-13T09:02:18.151Z,19.98
2017-12-13T09:03:18.279Z,19.90
2017-12-13T09:04:18.203Z,19.94
2017-12-13T09:05:18.232Z,19.95
2017-12-13T09:06:18.568Z,19.94
2017-12-13T09:07:18.301Z,19.95
2017-12-13T09:08:18.325Z,19.95
2017-12-13T09:09:18.511Z,19.89
2017-12-13T09:10:18.414Z,19.94
2017-12-13T09:11:18.434Z,19.95
2017-12-13T09:12:18.750Z,19.94
2017-12-13T09:13:18.484Z,19.95
2017-12-13T09:14:18.512Z,19.92
2017-12-13T09:15:18.841Z,19.94
2017-12-13T09:16:18.573Z,19.94
2017-12-13T09:17:18.604Z,19.94
2017-12-13T09:18:18.931Z,19.94
2017-12-13T09:19:18.661Z,19.95
2017-12-13T09:20:18.697Z,19.92
2017-12-13T09:22:18.753Z,19.90
2017-12-13T09:23:18.927Z,19.90
2017-12-13T09:24:19.113Z,19.95
2017-12-13T09:25:18.846Z,19.90
2017-12-13T09:26:19.497Z,19.94
2017-12-13T09:27:18.920Z,19.92
2017-12-13T09:28:19.036Z,19.95
2017-12-13T09:29:18.971Z,19.92
2017-12-13T09:30:19.305Z,19.94
2017-12-13T09:31:19.093Z,19.94
2017-12-13T09:32:19.060Z,19.92
2017-12-13T09:33:19.097Z,19.94
2017-12-13T09:34:19.172Z,19.94
2017-12-13T09:35:19.155Z,20.01
2017-12-13T09:36:19.182Z,19.92
2017-12-13T09:37:19.527Z,19.97
2017-12-13T09:38:19.304Z,19.90
2017-12-13T09:39:19.307Z,20.00
2017-12-13T09:40:19.505Z,19.94
2017-12-13T09:41:19.333Z,20.05
2017-12-13T09:42:19.371Z,19.95
2017-12-13T09:43:19.446Z,19.92
2017-12-13T09:44:19.779Z,19.87
2017-12-13T09:46:19.536Z,20.02
2017-12-13T09:48:19.560Z,20.04
2017-12-13T09:49:19.580Z,19.92
2017-12-13T09:50:19.610Z,19.97
2017-12-13T09:51:19.941Z,20.02
2017-12-13T09:52:20.021Z,20.04
2017-12-13T09:53:19.715Z,19.95
2017-12-13T09:54:19.740Z,20.01
2017-12-13T09:55:19.763Z,19.97
2017-12-13T09:56:19.796Z,20.04
2017-12-13T09:57:20.126Z,19.90
2017-12-13T09:58:19.964Z,20.04
2017-12-13T09:59:19.891Z,19.89
2017-12-13T10:00:19.930Z,19.98
2017-12-13T10:01:19.989Z,19.87
2017-12-13T10:02:19.979Z,19.95
2017-12-13T10:03:20.781Z,19.94
2017-12-13T10:04:20.391Z,20.00
2017-12-13T10:05:20.140Z,20.02
2017-12-13T10:06:20.098Z,19.98
2017-12-13T10:07:20.135Z,20.01
2017-12-13T10:08:20.177Z,19.95
2017-12-13T10:09:20.247Z,20.02
2017-12-13T10:10:20.318Z,19.94
2017-12-13T10:11:20.557Z,20.05
2017-12-13T10:12:20.283Z,20.04
2017-12-13T10:13:20.329Z,19.87
2017-12-13T10:15:20.527Z,19.94
2017-12-13T10:16:20.741Z,20.07
2017-12-13T10:17:20.605Z,19.94
2017-12-13T10:18:20.773Z,20.04
2017-12-13T10:20:20.529Z,20.07
2017-12-13T10:21:20.719Z,19.95
2017-12-13T10:22:20.600Z,20.00
2017-12-13T10:23:20.623Z,19.95
2017-12-13T10:24:20.650Z,20.02
2017-12-13T10:25:21.006Z,20.02
2017-12-13T10:26:20.723Z,20.02
2017-12-13T10:27:20.997Z,20.02
2017-12-13T10:28:20.776Z,20.02
2017-12-13T10:29:20.815Z,19.87
2017-12-13T10:30:20.851Z,19.98
2017-12-13T10:31:20.868Z,20.02
2017-12-13T10:32:21.197Z,20.05
2017-12-13T10:34:21.160Z,20.04
2017-12-13T10:36:21.018Z,20.05
2017-12-13T10:37:21.061Z,20.05
2017-12-13T10:38:21.081Z,20.05
2017-12-13T10:39:21.422Z,20.02
2017-12-13T10:40:21.269Z,20.07
2017-12-13T10:41:21.170Z,20.02
2017-12-13T10:42:21.205Z,20.08
2017-12-13T10:43:21.256Z,20.02
2017-12-13T10:44:21.267Z,20.05
2017-12-13T10:45:21.305Z,20.07
2017-12-13T10:46:21.674Z,20.04
2017-12-13T10:47:21.358Z,20.04
2017-12-13T10:48:21.388Z,20.04
2017-12-13T10:49:21.439Z,20.08
2017-12-13T10:50:21.459Z,20.04
2017-12-13T10:51:21.491Z,20.00
2017-12-13T10:52:21.609Z,20.02
2017-12-13T10:53:22.160Z,20.12
2017-12-13T10:54:21.614Z,20.07
2017-12-13T10:55:21.602Z,20.07
2017-12-13T10:56:21.643Z,20.10
2017-12-13T10:57:21.664Z,20.07
2017-12-13T10:58:21.792Z,20.05
2017-12-13T10:59:21.725Z,20.05
2017-12-13T11:00:22.106Z,20.10
2017-12-13T11:01:21.788Z,20.05
2017-12-13T11:02:21.817Z,20.17
2017-12-13T11:03:22.397Z,20.16
2017-12-13T11:04:21.876Z,20.04
2017-12-13T11:05:21.912Z,20.01
2017-12-13T11:06:21.941Z,20.08
2017-12-13T11:07:22.274Z,20.01
2017-12-13T11:08:22.000Z,20.05
2017-12-13T11:09:22.285Z,20.08
2017-12-13T11:10:22.061Z,20.04
2017-12-13T11:11:22.931Z,20.10
2017-12-13T11:12:22.129Z,20.13
2017-12-13T11:13:22.180Z,20.05
2017-12-13T11:14:22.536Z,20.02
2017-12-13T11:15:22.516Z,20.02
2017-12-13T11:16:22.367Z,20.17
2017-12-13T11:17:22.286Z,20.07
2017-12-13T11:18:22.311Z,20.02
2017-12-13T11:19:22.336Z,20.13
2017-12-13T11:20:22.687Z,20.07
2017-12-13T11:21:22.641Z,20.12
2017-12-13T11:22:22.441Z,20.05
2017-12-13T11:23:22.460Z,20.02
2017-12-13T11:24:22.502Z,20.12
2017-12-13T11:25:22.519Z,20.10
2017-12-13T11:26:22.859Z,20.15
2017-12-13T11:27:22.634Z,20.15
2017-12-13T11:28:22.721Z,20.08
2017-12-13T11:29:22.701Z,20.12
2017-12-13T11:30:22.690Z,20.08
2017-12-13T11:31:22.704Z,20.12
2017-12-13T11:32:23.114Z,20.15
2017-12-13T11:33:22.920Z,20.12
2017-12-13T11:34:22.796Z,20.12
2017-12-13T11:35:22.846Z,20.12
2017-12-13T11:36:22.856Z,20.17
2017-12-13T11:37:22.895Z,20.15
2017-12-13T11:38:23.223Z,20.19
2017-12-13T11:39:23.202Z,20.16
2017-12-13T11:40:22.980Z,20.16
2017-12-13T11:41:23.033Z,20.19
2017-12-13T11:42:23.045Z,20.13
2017-12-13T11:43:23.085Z,20.19
2017-12-13T11:44:23.421Z,20.20
2017-12-13T11:45:23.216Z,20.13
2017-12-13T11:46:23.243Z,20.10
2017-12-13T11:47:23.236Z,20.25
2017-12-13T11:48:23.226Z,20.17
2017-12-13T11:49:23.378Z,20.13
2017-12-13T11:50:23.654Z,20.15
2017-12-13T11:51:23.528Z,20.15
2017-12-13T11:52:23.414Z,20.13
2017-12-13T11:53:23.382Z,20.17
2017-12-13T11:54:23.419Z,20.15
2017-12-13T11:55:23.445Z,20.15
2017-12-13T11:56:23.825Z,20.19
2017-12-13T11:57:23.645Z,20.17
2017-12-13T11:58:23.546Z,20.16
2017-12-13T11:59:23.567Z,20.15
2017-12-13T12:00:24.640Z,20.17
2017-12-13T12:01:23.632Z,20.16
2017-12-13T12:02:24.137Z,20.13
2017-12-13T12:03:23.917Z,20.19
2017-12-13T12:04:23.754Z,20.16
2017-12-13T12:05:23.772Z,20.16
2017-12-13T12:06:23.906Z,20.19
2017-12-13T12:07:23.897Z,20.16
2017-12-13T12:08:24.242Z,20.16
2017-12-13T12:09:24.185Z,20.22
2017-12-13T12:10:23.918Z,20.19
2017-12-13T12:11:23.988Z,20.19
2017-12-13T12:12:24.009Z,20.15
2017-12-13T12:13:24.094Z,20.20
2017-12-13T12:14:24.366Z,20.15
2017-12-13T12:15:24.299Z,20.12
2017-12-13T12:16:24.137Z,20.16
2017-12-13T12:17:24.122Z,20.16
2017-12-13T12:18:24.158Z,20.13
2017-12-13T12:19:24.232Z,20.13
2017-12-13T12:20:24.521Z,20.19
2017-12-13T12:21:24.487Z,20.17
2017-12-13T12:22:24.379Z,20.13
2017-12-13T12:23:24.317Z,20.13
2017-12-13T12:24:24.441Z,20.16
2017-12-13T12:25:24.492Z,20.16
2017-12-13T12:26:24.796Z,20.16
2017-12-13T12:27:24.805Z,20.13
2017-12-13T12:28:24.549Z,20.16
2017-12-13T12:29:24.590Z,20.17
2017-12-13T12:30:24.624Z,20.16
2017-12-13T12:31:24.662Z,20.15
2017-12-13T12:32:24.975Z,20.17
2017-12-13T12:33:25.263Z,20.17
2017-12-13T12:34:24.697Z,20.10
2017-12-13T12:35:24.704Z,20.19
2017-12-13T12:36:24.822Z,20.25
2017-12-13T12:37:24.996Z,20.13
2017-12-13T12:38:24.949Z,20.17
2017-12-13T12:39:24.914Z,20.19
2017-12-13T12:40:24.926Z,20.16
2017-12-13T12:41:24.882Z,20.15
2017-12-13T12:42:24.990Z,20.19
2017-12-13T12:43:24.959Z,20.15
2017-12-13T12:44:24.995Z,20.26
2017-12-13T12:45:25.584Z,20.16
2017-12-13T12:46:25.095Z,20.16
2017-12-13T12:47:25.083Z,20.16
2017-12-13T12:48:26.138Z,20.19
2017-12-13T12:49:25.355Z,20.16
2017-12-13T12:50:25.529Z,20.20
2017-12-13T12:51:25.289Z,20.22
2017-12-13T12:52:25.663Z,20.15
2017-12-13T12:53:25.360Z,20.16
2017-12-13T12:54:25.393Z,20.16
2017-12-13T12:55:25.362Z,20.12
2017-12-13T12:56:25.546Z,20.19
2017-12-13T12:57:25.775Z,20.15
2017-12-13T12:58:25.567Z,20.13
2017-12-13T13:00:25.955Z,20.17
2017-12-13T13:01:25.571Z,20.16
2017-12-13T13:02:25.795Z,20.13
2017-12-13T13:03:25.618Z,20.17
2017-12-13T13:04:25.699Z,20.16
2017-12-13T13:05:25.636Z,20.15
2017-12-13T13:06:26.024Z,20.13
2017-12-13T13:07:25.936Z,20.13
2017-12-13T13:08:26.038Z,20.15
2017-12-13T13:09:25.802Z,20.17
2017-12-13T13:10:25.827Z,20.16
2017-12-13T13:11:25.842Z,20.20
2017-12-13T13:12:26.012Z,20.17
2017-12-13T13:13:26.438Z,20.10
2017-12-13T13:14:25.960Z,20.17
2017-12-13T13:15:25.983Z,20.16
2017-12-13T13:16:25.942Z,20.17
2017-12-13T13:17:25.973Z,20.19
2017-12-13T13:18:26.036Z,20.15